sensor_id;sensor_type;location;lat;lon;timestamp;temperature;humidity
26964;DHT22;14521;48.148;-1.656;2023-02-07T00:03:14;17.70;72.50
26964;DHT22;14521;48.148;-1.656;2023-02-07T00:06:37;17.70;72.50
26964;DHT22;14521;48.148;-1.656;2023-02-07T00:09:59;17.70;72.40
26964;DHT22;14521;48.148;-1.656;2023-02-07T00:13:21;17.70;72.30
26964;DHT22;14521;48.148;-1.656;2023-02-07T00:16:43;17.70;72.20
26964;DHT22;14521;48.148;-1.656;2023-02-07T00:20:06;17.70;72.10
26964;DHT22;14521;48.148;-1.656;2023-02-07T00:23:29;17.70;72.20
26964;DHT22;14521;48.148;-1.656;2023-02-07T00:26:51;17.70;72.40
26964;DHT22;14521;48.148;-1.656;2023-02-07T00:30:14;17.70;72.40
26964;DHT22;14521;48.148;-1.656;2023-02-07T00:33:37;17.60;72.20
26964;DHT22;14521;48.148;-1.656;2023-02-07T00:37:01;17.60;72.00
26964;DHT22;14521;48.148;-1.656;2023-02-07T00:40:23;17.60;72.10
26964;DHT22;14521;48.148;-1.656;2023-02-07T00:43:46;17.60;72.30
26964;DHT22;14521;48.148;-1.656;2023-02-07T00:47:08;17.60;72.30
26964;DHT22;14521;48.148;-1.656;2023-02-07T00:50:32;17.60;72.10
26964;DHT22;14521;48.148;-1.656;2023-02-07T00:53:55;17.50;72.00
26964;DHT22;14521;48.148;-1.656;2023-02-07T00:57:18;17.50;71.90
26964;DHT22;14521;48.148;-1.656;2023-02-07T01:00:40;17.60;72.00
26964;DHT22;14521;48.148;-1.656;2023-02-07T01:04:03;17.50;71.70
26964;DHT22;14521;48.148;-1.656;2023-02-07T01:07:26;17.50;71.70
26964;DHT22;14521;48.148;-1.656;2023-02-07T01:10:48;17.50;71.70
26964;DHT22;14521;48.148;-1.656;2023-02-07T01:14:11;17.50;71.70
26964;DHT22;14521;48.148;-1.656;2023-02-07T01:17:33;17.50;72.20
26964;DHT22;14521;48.148;-1.656;2023-02-07T01:20:56;17.50;73.00
26964;DHT22;14521;48.148;-1.656;2023-02-07T01:24:18;17.50;72.30
26964;DHT22;14521;48.148;-1.656;2023-02-07T01:27:40;17.50;72.00
26964;DHT22;14521;48.148;-1.656;2023-02-07T01:31:08;17.50;71.70
26964;DHT22;14521;48.148;-1.656;2023-02-07T01:34:31;17.50;70.90
26964;DHT22;14521;48.148;-1.656;2023-02-07T01:37:53;17.50;71.60
26964;DHT22;14521;48.148;-1.656;2023-02-07T01:41:15;17.50;71.60
26964;DHT22;14521;48.148;-1.656;2023-02-07T01:48:05;17.50;70.90
26964;DHT22;14521;48.148;-1.656;2023-02-07T01:51:29;17.50;71.00
26964;DHT22;14521;48.148;-1.656;2023-02-07T01:54:54;17.40;71.00
26964;DHT22;14521;48.148;-1.656;2023-02-07T01:58:19;17.40;70.70
26964;DHT22;14521;48.148;-1.656;2023-02-07T02:01:43;17.40;70.70
26964;DHT22;14521;48.148;-1.656;2023-02-07T02:05:07;17.40;70.60
26964;DHT22;14521;48.148;-1.656;2023-02-07T02:08:29;17.40;70.50
26964;DHT22;14521;48.148;-1.656;2023-02-07T02:23:27;17.30;70.60
26964;DHT22;14521;48.148;-1.656;2023-02-07T02:38:33;17.20;70.10
26964;DHT22;14521;48.148;-1.656;2023-02-07T02:42:15;17.20;69.90
26964;DHT22;14521;48.148;-1.656;2023-02-07T02:45:48;17.20;70.00
26964;DHT22;14521;48.148;-1.656;2023-02-07T02:49:12;17.20;70.00
26964;DHT22;14521;48.148;-1.656;2023-02-07T02:52:35;17.20;70.10
26964;DHT22;14521;48.148;-1.656;2023-02-07T03:03:53;17.20;70.10
26964;DHT22;14521;48.148;-1.656;2023-02-07T03:11:01;17.20;69.90
26964;DHT22;14521;48.148;-1.656;2023-02-07T03:15:13;17.20;69.60
26964;DHT22;14521;48.148;-1.656;2023-02-07T03:18:30;17.20;69.80
26964;DHT22;14521;48.148;-1.656;2023-02-07T03:21:59;17.20;70.00
26964;DHT22;14521;48.148;-1.656;2023-02-07T03:25:23;17.20;69.80
26964;DHT22;14521;48.148;-1.656;2023-02-07T03:28:48;17.10;69.80
26964;DHT22;14521;48.148;-1.656;2023-02-07T03:32:12;17.20;70.30
26964;DHT22;14521;48.148;-1.656;2023-02-07T03:39:29;17.20;70.10
26964;DHT22;14521;48.148;-1.656;2023-02-07T03:43:01;17.30;70.30
26964;DHT22;14521;48.148;-1.656;2023-02-07T03:46:25;17.30;69.90
26964;DHT22;14521;48.148;-1.656;2023-02-07T03:49:47;17.20;70.00
26964;DHT22;14521;48.148;-1.656;2023-02-07T03:53:10;17.30;70.80
26964;DHT22;14521;48.148;-1.656;2023-02-07T03:56:32;17.20;69.80
26964;DHT22;14521;48.148;-1.656;2023-02-07T03:59:54;17.30;69.80
26964;DHT22;14521;48.148;-1.656;2023-02-07T04:03:17;17.20;69.60
26964;DHT22;14521;48.148;-1.656;2023-02-07T04:06:39;17.30;69.50
26964;DHT22;14521;48.148;-1.656;2023-02-07T04:10:03;17.30;69.30
26964;DHT22;14521;48.148;-1.656;2023-02-07T04:13:26;17.20;69.20
26964;DHT22;14521;48.148;-1.656;2023-02-07T04:16:49;17.30;69.30
26964;DHT22;14521;48.148;-1.656;2023-02-07T04:20:11;17.30;69.20
26964;DHT22;14521;48.148;-1.656;2023-02-07T04:23:34;17.30;69.10
26964;DHT22;14521;48.148;-1.656;2023-02-07T04:27:00;17.20;69.00
26964;DHT22;14521;48.148;-1.656;2023-02-07T04:30:22;17.20;69.00
26964;DHT22;14521;48.148;-1.656;2023-02-07T04:33:45;17.30;69.10
26964;DHT22;14521;48.148;-1.656;2023-02-07T04:37:07;17.30;69.10
26964;DHT22;14521;48.148;-1.656;2023-02-07T04:40:29;17.20;69.00
26964;DHT22;14521;48.148;-1.656;2023-02-07T04:43:52;17.30;69.00
26964;DHT22;14521;48.148;-1.656;2023-02-07T04:47:14;17.20;69.00
26964;DHT22;14521;48.148;-1.656;2023-02-07T04:50:36;17.20;69.00
26964;DHT22;14521;48.148;-1.656;2023-02-07T04:53:59;17.20;69.00
26964;DHT22;14521;48.148;-1.656;2023-02-07T04:57:21;17.20;68.90
26964;DHT22;14521;48.148;-1.656;2023-02-07T05:00:44;17.20;68.80
26964;DHT22;14521;48.148;-1.656;2023-02-07T05:04:06;17.20;68.90
26964;DHT22;14521;48.148;-1.656;2023-02-07T05:07:29;17.10;68.80
26964;DHT22;14521;48.148;-1.656;2023-02-07T05:10:53;17.20;68.50
26964;DHT22;14521;48.148;-1.656;2023-02-07T05:14:15;17.20;68.70
26964;DHT22;14521;48.148;-1.656;2023-02-07T05:17:38;17.20;68.70
26964;DHT22;14521;48.148;-1.656;2023-02-07T05:21:00;17.20;68.50
26964;DHT22;14521;48.148;-1.656;2023-02-07T05:24:22;17.30;68.60
26964;DHT22;14521;48.148;-1.656;2023-02-07T05:27:45;17.30;68.40
26964;DHT22;14521;48.148;-1.656;2023-02-07T05:31:07;17.30;68.30
26964;DHT22;14521;48.148;-1.656;2023-02-07T05:34:29;17.40;68.30
26964;DHT22;14521;48.148;-1.656;2023-02-07T05:37:54;17.50;68.40
26964;DHT22;14521;48.148;-1.656;2023-02-07T05:41:16;17.50;68.60
26964;DHT22;14521;48.148;-1.656;2023-02-07T05:44:38;17.60;68.30
26964;DHT22;14521;48.148;-1.656;2023-02-07T05:48:01;17.70;68.30
26964;DHT22;14521;48.148;-1.656;2023-02-07T05:51:23;17.70;68.30
26964;DHT22;14521;48.148;-1.656;2023-02-07T05:54:45;17.80;68.00
26964;DHT22;14521;48.148;-1.656;2023-02-07T05:58:08;17.80;68.00
26964;DHT22;14521;48.148;-1.656;2023-02-07T06:01:30;17.90;68.00
26964;DHT22;14521;48.148;-1.656;2023-02-07T06:04:52;17.90;68.00
26964;DHT22;14521;48.148;-1.656;2023-02-07T06:08:15;17.90;68.00
26964;DHT22;14521;48.148;-1.656;2023-02-07T06:11:37;17.90;68.00
26964;DHT22;14521;48.148;-1.656;2023-02-07T06:14:59;17.90;68.00
26964;DHT22;14521;48.148;-1.656;2023-02-07T06:18:22;17.80;67.90
26964;DHT22;14521;48.148;-1.656;2023-02-07T06:21:45;17.80;67.80
26964;DHT22;14521;48.148;-1.656;2023-02-07T06:25:08;17.80;67.90
26964;DHT22;14521;48.148;-1.656;2023-02-07T06:28:32;17.80;67.80
26964;DHT22;14521;48.148;-1.656;2023-02-07T06:31:55;17.70;67.80
26964;DHT22;14521;48.148;-1.656;2023-02-07T06:35:17;17.70;67.80
26964;DHT22;14521;48.148;-1.656;2023-02-07T06:38:40;17.70;67.80
26964;DHT22;14521;48.148;-1.656;2023-02-07T06:42:02;17.70;67.80
26964;DHT22;14521;48.148;-1.656;2023-02-07T06:45:25;17.70;67.70
26964;DHT22;14521;48.148;-1.656;2023-02-07T06:48:48;17.70;67.80
26964;DHT22;14521;48.148;-1.656;2023-02-07T06:52:10;17.60;67.90
26964;DHT22;14521;48.148;-1.656;2023-02-07T06:55:37;17.60;67.90
26964;DHT22;14521;48.148;-1.656;2023-02-07T06:59:00;17.60;68.00
26964;DHT22;14521;48.148;-1.656;2023-02-07T07:02:22;17.60;68.00
26964;DHT22;14521;48.148;-1.656;2023-02-07T07:05:44;17.50;68.10
26964;DHT22;14521;48.148;-1.656;2023-02-07T07:09:06;17.50;68.40
26964;DHT22;14521;48.148;-1.656;2023-02-07T07:12:29;17.50;68.30
26964;DHT22;14521;48.148;-1.656;2023-02-07T07:15:51;17.50;68.50
26964;DHT22;14521;48.148;-1.656;2023-02-07T07:19:13;17.50;68.50
26964;DHT22;14521;48.148;-1.656;2023-02-07T07:22:36;17.50;68.40
26964;DHT22;14521;48.148;-1.656;2023-02-07T07:25:59;17.50;68.40
26964;DHT22;14521;48.148;-1.656;2023-02-07T07:29:21;17.50;68.40
26964;DHT22;14521;48.148;-1.656;2023-02-07T07:32:43;17.40;68.40
26964;DHT22;14521;48.148;-1.656;2023-02-07T07:36:06;17.40;68.40
26964;DHT22;14521;48.148;-1.656;2023-02-07T07:39:30;17.40;68.10
26964;DHT22;14521;48.148;-1.656;2023-02-07T07:42:53;17.40;68.20
26964;DHT22;14521;48.148;-1.656;2023-02-07T07:46:24;17.40;68.20
26964;DHT22;14521;48.148;-1.656;2023-02-07T07:49:47;17.40;68.20
26964;DHT22;14521;48.148;-1.656;2023-02-07T07:53:10;17.40;68.10
26964;DHT22;14521;48.148;-1.656;2023-02-07T07:56:33;17.40;68.00
26964;DHT22;14521;48.148;-1.656;2023-02-07T07:59:56;17.30;68.20
26964;DHT22;14521;48.148;-1.656;2023-02-07T08:03:19;17.40;68.90
26964;DHT22;14521;48.148;-1.656;2023-02-07T08:06:42;17.40;68.90
26964;DHT22;14521;48.148;-1.656;2023-02-07T08:10:04;17.40;68.90
26964;DHT22;14521;48.148;-1.656;2023-02-07T08:13:26;17.30;68.70
26964;DHT22;14521;48.148;-1.656;2023-02-07T08:16:53;17.30;68.70
26964;DHT22;14521;48.148;-1.656;2023-02-07T08:20:15;17.30;68.60
26964;DHT22;14521;48.148;-1.656;2023-02-07T08:23:38;17.30;68.50
26964;DHT22;14521;48.148;-1.656;2023-02-07T08:27:01;17.30;68.50
26964;DHT22;14521;48.148;-1.656;2023-02-07T08:30:24;17.30;68.40
26964;DHT22;14521;48.148;-1.656;2023-02-07T08:33:46;17.30;68.40
26964;DHT22;14521;48.148;-1.656;2023-02-07T08:37:09;17.30;68.40
26964;DHT22;14521;48.148;-1.656;2023-02-07T08:40:31;17.30;68.20
26964;DHT22;14521;48.148;-1.656;2023-02-07T08:43:54;17.30;68.10
26964;DHT22;14521;48.148;-1.656;2023-02-07T08:47:17;17.30;68.10
26964;DHT22;14521;48.148;-1.656;2023-02-07T08:50:40;17.30;68.00
26964;DHT22;14521;48.148;-1.656;2023-02-07T08:54:02;17.30;68.00
26964;DHT22;14521;48.148;-1.656;2023-02-07T08:57:25;17.30;68.00
26964;DHT22;14521;48.148;-1.656;2023-02-07T09:00:47;17.30;68.00
26964;DHT22;14521;48.148;-1.656;2023-02-07T09:04:10;17.30;68.20
26964;DHT22;14521;48.148;-1.656;2023-02-07T09:07:32;17.20;68.20
26964;DHT22;14521;48.148;-1.656;2023-02-07T09:10:55;17.20;68.30
26964;DHT22;14521;48.148;-1.656;2023-02-07T09:14:17;17.20;68.30
26964;DHT22;14521;48.148;-1.656;2023-02-07T09:17:40;17.20;68.10
26964;DHT22;14521;48.148;-1.656;2023-02-07T09:21:03;17.60;67.40
26964;DHT22;14521;48.148;-1.656;2023-02-07T09:24:25;17.90;67.00
26964;DHT22;14521;48.148;-1.656;2023-02-07T09:27:49;18.20;66.80
26964;DHT22;14521;48.148;-1.656;2023-02-07T09:31:13;18.40;67.00
26964;DHT22;14521;48.148;-1.656;2023-02-07T09:34:36;18.40;70.70
26964;DHT22;14521;48.148;-1.656;2023-02-07T09:37:58;18.30;71.00
26964;DHT22;14521;48.148;-1.656;2023-02-07T09:41:38;18.20;71.60
26964;DHT22;14521;48.148;-1.656;2023-02-07T09:45:23;18.00;71.40
26964;DHT22;14521;48.148;-1.656;2023-02-07T09:49:04;17.90;72.00
26964;DHT22;14521;48.148;-1.656;2023-02-07T09:52:41;17.80;72.60
26964;DHT22;14521;48.148;-1.656;2023-02-07T09:56:08;17.70;72.30
26964;DHT22;14521;48.148;-1.656;2023-02-07T09:59:53;17.70;72.80
26964;DHT22;14521;48.148;-1.656;2023-02-07T10:03:21;17.70;72.90
26964;DHT22;14521;48.148;-1.656;2023-02-07T10:06:47;17.70;73.10
26964;DHT22;14521;48.148;-1.656;2023-02-07T10:10:16;17.70;72.80
26964;DHT22;14521;48.148;-1.656;2023-02-07T10:31:37;17.80;72.90
26964;DHT22;14521;48.148;-1.656;2023-02-07T10:35:13;17.80;72.50
26964;DHT22;14521;48.148;-1.656;2023-02-07T10:39:02;17.80;72.50
26964;DHT22;14521;48.148;-1.656;2023-02-07T10:42:33;17.80;72.50
26964;DHT22;14521;48.148;-1.656;2023-02-07T10:46:03;17.80;73.30
26964;DHT22;14521;48.148;-1.656;2023-02-07T10:49:36;17.80;72.20
26964;DHT22;14521;48.148;-1.656;2023-02-07T10:52:58;17.80;72.10
26964;DHT22;14521;48.148;-1.656;2023-02-07T10:56:26;17.80;72.00
26964;DHT22;14521;48.148;-1.656;2023-02-07T10:59:57;17.80;71.90
26964;DHT22;14521;48.148;-1.656;2023-02-07T11:03:22;17.80;72.00
26964;DHT22;14521;48.148;-1.656;2023-02-07T11:06:45;17.80;72.10
26964;DHT22;14521;48.148;-1.656;2023-02-07T11:10:19;17.80;71.90
26964;DHT22;14521;48.148;-1.656;2023-02-07T11:13:48;17.80;71.60
26964;DHT22;14521;48.148;-1.656;2023-02-07T11:17:19;17.80;71.60
26964;DHT22;14521;48.148;-1.656;2023-02-07T11:20:48;17.80;71.90
26964;DHT22;14521;48.148;-1.656;2023-02-07T11:24:24;17.80;71.90
26964;DHT22;14521;48.148;-1.656;2023-02-07T11:27:48;17.80;71.90
26964;DHT22;14521;48.148;-1.656;2023-02-07T11:31:13;17.80;71.60
26964;DHT22;14521;48.148;-1.656;2023-02-07T11:38:12;17.80;71.90
26964;DHT22;14521;48.148;-1.656;2023-02-07T11:41:37;17.80;71.90
26964;DHT22;14521;48.148;-1.656;2023-02-07T11:45:04;17.80;71.60
26964;DHT22;14521;48.148;-1.656;2023-02-07T11:48:33;17.80;71.40
26964;DHT22;14521;48.148;-1.656;2023-02-07T11:51:59;17.80;71.60
26964;DHT22;14521;48.148;-1.656;2023-02-07T11:55:29;17.80;71.40
26964;DHT22;14521;48.148;-1.656;2023-02-07T11:58:53;17.80;71.50
26964;DHT22;14521;48.148;-1.656;2023-02-07T12:02:23;17.80;71.30
26964;DHT22;14521;48.148;-1.656;2023-02-07T12:05:49;17.80;71.40
26964;DHT22;14521;48.148;-1.656;2023-02-07T12:09:31;17.80;71.30
26964;DHT22;14521;48.148;-1.656;2023-02-07T12:13:12;17.80;71.00
26964;DHT22;14521;48.148;-1.656;2023-02-07T12:16:50;17.80;71.00
26964;DHT22;14521;48.148;-1.656;2023-02-07T12:24:09;17.80;71.10
26964;DHT22;14521;48.148;-1.656;2023-02-07T12:27:37;17.80;71.10
26964;DHT22;14521;48.148;-1.656;2023-02-07T12:31:13;17.80;71.00
26964;DHT22;14521;48.148;-1.656;2023-02-07T12:35:00;17.80;70.80
26964;DHT22;14521;48.148;-1.656;2023-02-07T12:38:37;17.80;70.60
26964;DHT22;14521;48.148;-1.656;2023-02-07T13:08:19;17.80;69.90
26964;DHT22;14521;48.148;-1.656;2023-02-07T13:15:49;17.80;70.20
26964;DHT22;14521;48.148;-1.656;2023-02-07T13:22:54;17.90;70.70
26964;DHT22;14521;48.148;-1.656;2023-02-07T13:26:20;17.80;70.20
26964;DHT22;14521;48.148;-1.656;2023-02-07T13:29:44;17.80;70.30
26964;DHT22;14521;48.148;-1.656;2023-02-07T13:33:35;17.90;70.60
26964;DHT22;14521;48.148;-1.656;2023-02-07T13:36:59;17.90;70.70
26964;DHT22;14521;48.148;-1.656;2023-02-07T13:41:09;17.80;70.30
26964;DHT22;14521;48.148;-1.656;2023-02-07T13:44:50;17.90;70.30
26964;DHT22;14521;48.148;-1.656;2023-02-07T13:49:00;17.90;70.30
26964;DHT22;14521;48.148;-1.656;2023-02-07T13:52:35;17.90;70.60
26964;DHT22;14521;48.148;-1.656;2023-02-07T13:56:01;17.90;70.70
26964;DHT22;14521;48.148;-1.656;2023-02-07T14:03:04;17.90;70.30
26964;DHT22;14521;48.148;-1.656;2023-02-07T14:06:29;17.90;70.20
26964;DHT22;14521;48.148;-1.656;2023-02-07T14:09:54;17.90;69.60
26964;DHT22;14521;48.148;-1.656;2023-02-07T14:16:54;18.00;68.20
26964;DHT22;14521;48.148;-1.656;2023-02-07T14:27:39;18.20;67.90
26964;DHT22;14521;48.148;-1.656;2023-02-07T14:31:20;18.20;68.70
26964;DHT22;14521;48.148;-1.656;2023-02-07T14:38:37;18.40;68.80
26964;DHT22;14521;48.148;-1.656;2023-02-07T14:42:10;18.40;68.60
26964;DHT22;14521;48.148;-1.656;2023-02-07T14:45:35;18.40;68.90
26964;DHT22;14521;48.148;-1.656;2023-02-07T14:52:26;18.40;68.50
26964;DHT22;14521;48.148;-1.656;2023-02-07T14:55:59;18.50;69.60
26964;DHT22;14521;48.148;-1.656;2023-02-07T14:59:28;18.50;69.00
26964;DHT22;14521;48.148;-1.656;2023-02-07T15:02:56;18.50;69.20
26964;DHT22;14521;48.148;-1.656;2023-02-07T15:06:19;18.50;69.00
26964;DHT22;14521;48.148;-1.656;2023-02-07T15:09:53;18.50;69.10
26964;DHT22;14521;48.148;-1.656;2023-02-07T15:13:26;18.60;68.70
26964;DHT22;14521;48.148;-1.656;2023-02-07T15:16:48;18.60;69.10
26964;DHT22;14521;48.148;-1.656;2023-02-07T15:20:17;18.60;68.80
26964;DHT22;14521;48.148;-1.656;2023-02-07T15:23:39;18.60;69.30
26964;DHT22;14521;48.148;-1.656;2023-02-07T15:27:04;18.60;68.70
26964;DHT22;14521;48.148;-1.656;2023-02-07T15:30:27;18.60;68.10
26964;DHT22;14521;48.148;-1.656;2023-02-07T15:33:53;18.60;68.10
26964;DHT22;14521;48.148;-1.656;2023-02-07T15:37:22;18.60;68.10
26964;DHT22;14521;48.148;-1.656;2023-02-07T15:40:45;18.70;68.30
26964;DHT22;14521;48.148;-1.656;2023-02-07T15:47:42;18.60;68.30
26964;DHT22;14521;48.148;-1.656;2023-02-07T15:51:04;18.60;68.30
26964;DHT22;14521;48.148;-1.656;2023-02-07T15:54:27;18.60;68.30
26964;DHT22;14521;48.148;-1.656;2023-02-07T15:57:50;18.60;68.10
26964;DHT22;14521;48.148;-1.656;2023-02-07T16:01:33;18.60;68.20
26964;DHT22;14521;48.148;-1.656;2023-02-07T16:04:56;18.60;68.00
26964;DHT22;14521;48.148;-1.656;2023-02-07T16:08:37;18.60;68.80
26964;DHT22;14521;48.148;-1.656;2023-02-07T16:11:59;18.60;69.60
26964;DHT22;14521;48.148;-1.656;2023-02-07T16:15:31;18.60;67.90
26964;DHT22;14521;48.148;-1.656;2023-02-07T16:19:27;18.60;67.80
26964;DHT22;14521;48.148;-1.656;2023-02-07T16:22:51;18.60;67.90
26964;DHT22;14521;48.148;-1.656;2023-02-07T16:26:16;18.60;67.80
26964;DHT22;14521;48.148;-1.656;2023-02-07T16:29:40;18.60;67.80
26964;DHT22;14521;48.148;-1.656;2023-02-07T16:33:07;18.60;67.80
26964;DHT22;14521;48.148;-1.656;2023-02-07T16:36:32;18.60;67.80
26964;DHT22;14521;48.148;-1.656;2023-02-07T16:39:54;18.60;67.80
26964;DHT22;14521;48.148;-1.656;2023-02-07T16:43:32;18.60;67.80
26964;DHT22;14521;48.148;-1.656;2023-02-07T16:46:55;18.60;67.90
26964;DHT22;14521;48.148;-1.656;2023-02-07T16:50:23;18.60;67.80
26964;DHT22;14521;48.148;-1.656;2023-02-07T16:53:45;18.60;67.70
26964;DHT22;14521;48.148;-1.656;2023-02-07T16:57:09;18.50;67.60
26964;DHT22;14521;48.148;-1.656;2023-02-07T17:00:32;18.50;68.50
26964;DHT22;14521;48.148;-1.656;2023-02-07T17:03:54;18.50;67.80
26964;DHT22;14521;48.148;-1.656;2023-02-07T17:07:17;18.50;67.80
26964;DHT22;14521;48.148;-1.656;2023-02-07T17:10:43;18.50;67.80
26964;DHT22;14521;48.148;-1.656;2023-02-07T17:14:07;18.50;67.70
26964;DHT22;14521;48.148;-1.656;2023-02-07T17:17:29;18.50;67.70
26964;DHT22;14521;48.148;-1.656;2023-02-07T17:20:52;18.50;67.90
26964;DHT22;14521;48.148;-1.656;2023-02-07T17:24:17;18.50;67.90
26964;DHT22;14521;48.148;-1.656;2023-02-07T17:27:39;18.50;67.90
26964;DHT22;14521;48.148;-1.656;2023-02-07T17:31:01;18.50;68.00
26964;DHT22;14521;48.148;-1.656;2023-02-07T17:34:24;18.50;67.90
26964;DHT22;14521;48.148;-1.656;2023-02-07T17:37:47;18.50;67.80
26964;DHT22;14521;48.148;-1.656;2023-02-07T17:41:14;18.50;67.80
26964;DHT22;14521;48.148;-1.656;2023-02-07T17:44:36;18.50;67.90
26964;DHT22;14521;48.148;-1.656;2023-02-07T17:48:00;18.40;67.80
26964;DHT22;14521;48.148;-1.656;2023-02-07T17:51:24;18.40;67.80
26964;DHT22;14521;48.148;-1.656;2023-02-07T17:54:47;18.40;67.70
26964;DHT22;14521;48.148;-1.656;2023-02-07T17:58:10;18.50;67.70
26964;DHT22;14521;48.148;-1.656;2023-02-07T18:01:33;18.50;67.60
26964;DHT22;14521;48.148;-1.656;2023-02-07T18:04:56;18.40;67.50
26964;DHT22;14521;48.148;-1.656;2023-02-07T18:08:19;18.50;67.50
26964;DHT22;14521;48.148;-1.656;2023-02-07T18:11:41;18.40;67.50
26964;DHT22;14521;48.148;-1.656;2023-02-07T18:15:04;18.50;67.60
26964;DHT22;14521;48.148;-1.656;2023-02-07T18:18:28;18.40;67.50
26964;DHT22;14521;48.148;-1.656;2023-02-07T18:21:51;18.50;67.50
26964;DHT22;14521;48.148;-1.656;2023-02-07T18:25:13;18.50;67.50
26964;DHT22;14521;48.148;-1.656;2023-02-07T18:28:36;18.40;67.50
26964;DHT22;14521;48.148;-1.656;2023-02-07T18:31:58;18.40;67.50
26964;DHT22;14521;48.148;-1.656;2023-02-07T18:35:20;18.40;67.60
26964;DHT22;14521;48.148;-1.656;2023-02-07T18:38:43;18.40;67.60
26964;DHT22;14521;48.148;-1.656;2023-02-07T18:42:05;18.40;67.60
26964;DHT22;14521;48.148;-1.656;2023-02-07T18:45:28;18.40;67.60
26964;DHT22;14521;48.148;-1.656;2023-02-07T18:48:57;18.40;67.50
26964;DHT22;14521;48.148;-1.656;2023-02-07T18:52:19;18.40;67.50
26964;DHT22;14521;48.148;-1.656;2023-02-07T18:55:41;18.40;67.50
26964;DHT22;14521;48.148;-1.656;2023-02-07T18:59:04;18.40;67.50
26964;DHT22;14521;48.148;-1.656;2023-02-07T19:02:26;18.30;67.60
26964;DHT22;14521;48.148;-1.656;2023-02-07T19:05:48;18.40;67.50
26964;DHT22;14521;48.148;-1.656;2023-02-07T19:09:11;18.30;67.60
26964;DHT22;14521;48.148;-1.656;2023-02-07T19:12:34;18.40;67.50
26964;DHT22;14521;48.148;-1.656;2023-02-07T19:16:09;18.40;67.30
26964;DHT22;14521;48.148;-1.656;2023-02-07T19:19:32;18.30;67.20
26964;DHT22;14521;48.148;-1.656;2023-02-07T19:22:54;18.30;67.20
26964;DHT22;14521;48.148;-1.656;2023-02-07T19:26:17;18.30;67.20
26964;DHT22;14521;48.148;-1.656;2023-02-07T19:29:40;18.30;67.10
26964;DHT22;14521;48.148;-1.656;2023-02-07T19:33:02;18.40;67.10
26964;DHT22;14521;48.148;-1.656;2023-02-07T19:36:25;18.40;67.00
26964;DHT22;14521;48.148;-1.656;2023-02-07T19:39:47;18.40;67.00
26964;DHT22;14521;48.148;-1.656;2023-02-07T19:43:10;18.40;67.00
26964;DHT22;14521;48.148;-1.656;2023-02-07T19:46:33;18.40;67.10
26964;DHT22;14521;48.148;-1.656;2023-02-07T19:49:56;18.30;67.10
26964;DHT22;14521;48.148;-1.656;2023-02-07T19:53:18;18.30;67.20
26964;DHT22;14521;48.148;-1.656;2023-02-07T19:56:40;18.30;67.30
26964;DHT22;14521;48.148;-1.656;2023-02-07T20:00:04;18.30;67.30
26964;DHT22;14521;48.148;-1.656;2023-02-07T20:03:28;18.30;67.30
26964;DHT22;14521;48.148;-1.656;2023-02-07T20:06:50;18.30;67.40
26964;DHT22;14521;48.148;-1.656;2023-02-07T20:10:12;18.30;67.30
26964;DHT22;14521;48.148;-1.656;2023-02-07T20:13:37;18.30;67.40
26964;DHT22;14521;48.148;-1.656;2023-02-07T20:17:00;18.30;67.10
26964;DHT22;14521;48.148;-1.656;2023-02-07T20:20:22;18.30;67.10
26964;DHT22;14521;48.148;-1.656;2023-02-07T20:23:45;18.30;67.20
26964;DHT22;14521;48.148;-1.656;2023-02-07T20:27:08;18.20;67.30
26964;DHT22;14521;48.148;-1.656;2023-02-07T20:30:30;18.20;67.40
26964;DHT22;14521;48.148;-1.656;2023-02-07T20:33:53;18.20;67.30
26964;DHT22;14521;48.148;-1.656;2023-02-07T20:37:16;18.20;66.90
26964;DHT22;14521;48.148;-1.656;2023-02-07T20:40:38;18.20;66.90
26964;DHT22;14521;48.148;-1.656;2023-02-07T20:44:03;18.20;67.00
26964;DHT22;14521;48.148;-1.656;2023-02-07T20:47:26;18.20;67.10
26964;DHT22;14521;48.148;-1.656;2023-02-07T20:50:56;18.20;67.10
26964;DHT22;14521;48.148;-1.656;2023-02-07T20:54:21;18.20;67.10
26964;DHT22;14521;48.148;-1.656;2023-02-07T20:57:44;18.20;67.00
26964;DHT22;14521;48.148;-1.656;2023-02-07T21:01:18;18.20;67.00
26964;DHT22;14521;48.148;-1.656;2023-02-07T21:04:40;18.10;66.90
26964;DHT22;14521;48.148;-1.656;2023-02-07T21:08:04;18.20;67.00
26964;DHT22;14521;48.148;-1.656;2023-02-07T21:11:32;18.20;67.00
26964;DHT22;14521;48.148;-1.656;2023-02-07T21:14:54;18.20;67.00
26964;DHT22;14521;48.148;-1.656;2023-02-07T21:18:18;18.10;66.80
26964;DHT22;14521;48.148;-1.656;2023-02-07T21:21:41;18.10;66.70
26964;DHT22;14521;48.148;-1.656;2023-02-07T21:25:03;18.10;66.80
26964;DHT22;14521;48.148;-1.656;2023-02-07T21:28:26;18.10;66.70
26964;DHT22;14521;48.148;-1.656;2023-02-07T21:31:49;18.10;66.90
26964;DHT22;14521;48.148;-1.656;2023-02-07T21:35:11;18.10;66.80
26964;DHT22;14521;48.148;-1.656;2023-02-07T21:38:34;18.10;66.70
26964;DHT22;14521;48.148;-1.656;2023-02-07T21:41:57;18.10;66.60
26964;DHT22;14521;48.148;-1.656;2023-02-07T21:45:19;18.10;66.60
26964;DHT22;14521;48.148;-1.656;2023-02-07T21:48:42;18.10;66.70
26964;DHT22;14521;48.148;-1.656;2023-02-07T21:52:04;18.00;66.70
26964;DHT22;14521;48.148;-1.656;2023-02-07T21:55:27;18.00;66.60
26964;DHT22;14521;48.148;-1.656;2023-02-07T21:59:04;18.00;66.70
26964;DHT22;14521;48.148;-1.656;2023-02-07T22:02:27;18.10;66.10
26964;DHT22;14521;48.148;-1.656;2023-02-07T22:05:50;18.10;65.80
26964;DHT22;14521;48.148;-1.656;2023-02-07T22:09:16;18.10;65.70
26964;DHT22;14521;48.148;-1.656;2023-02-07T22:12:38;18.20;66.10
26964;DHT22;14521;48.148;-1.656;2023-02-07T22:16:01;18.20;66.90
26964;DHT22;14521;48.148;-1.656;2023-02-07T22:19:23;18.20;67.80
26964;DHT22;14521;48.148;-1.656;2023-02-07T22:22:46;18.20;68.10
26964;DHT22;14521;48.148;-1.656;2023-02-07T22:26:08;18.10;68.10
26964;DHT22;14521;48.148;-1.656;2023-02-07T22:29:30;18.20;68.00
26964;DHT22;14521;48.148;-1.656;2023-02-07T22:32:53;18.20;68.20
26964;DHT22;14521;48.148;-1.656;2023-02-07T22:36:24;18.20;68.20
26964;DHT22;14521;48.148;-1.656;2023-02-07T22:39:48;18.20;68.20
26964;DHT22;14521;48.148;-1.656;2023-02-07T22:43:15;18.10;68.00
26964;DHT22;14521;48.148;-1.656;2023-02-07T22:46:37;18.20;68.10
26964;DHT22;14521;48.148;-1.656;2023-02-07T22:49:59;18.20;68.00
26964;DHT22;14521;48.148;-1.656;2023-02-07T22:53:22;18.20;67.80
26964;DHT22;14521;48.148;-1.656;2023-02-07T22:56:44;18.10;67.60
26964;DHT22;14521;48.148;-1.656;2023-02-07T23:00:09;18.10;67.80
26964;DHT22;14521;48.148;-1.656;2023-02-07T23:03:32;18.10;68.00
26964;DHT22;14521;48.148;-1.656;2023-02-07T23:06:54;18.10;67.80
26964;DHT22;14521;48.148;-1.656;2023-02-07T23:10:17;18.10;67.70
26964;DHT22;14521;48.148;-1.656;2023-02-07T23:13:40;18.10;67.40
26964;DHT22;14521;48.148;-1.656;2023-02-07T23:17:03;18.10;68.30
26964;DHT22;14521;48.148;-1.656;2023-02-07T23:20:26;18.10;67.70
26964;DHT22;14521;48.148;-1.656;2023-02-07T23:23:48;18.00;67.70